Time;durP1;ratioP1;P1;durP2;ratioP2;P2;SDS_P1;SDS_P2;PMS_P1;PMS_P2;Temp;Humidity;BMP_temperature;BMP_pressure;BME280_temperature;BME280_humidity;BME280_pressure;Samples;Min_cycle;Max_cycle;Signal;HPM_P1;HPM_P2
2023/08/10 00:02:24;;;;;;;;;13.00;13.00;;;;;;;;5122495;27;45963;-76
2023/08/10 00:04:49;;;;;;;;;12.00;12.00;;;;;;;;5141364;27;46682;-75
2023/08/10 00:07:15;;;;;;;;;13.67;13.00;;;;;;;;5140882;27;45281;-76
2023/08/10 00:09:40;;;;;;;;;15.00;15.00;;;;;;;;5141472;27;45471;-75
2023/08/10 00:12:06;;;;;;;;;13.67;13.67;;;;;;;;5122617;27;46045;-76
2023/08/10 00:14:32;;;;;;;;;12.00;12.00;;;;;;;;5141122;27;45644;-76
2023/08/10 00:16:57;;;;;;;;;12.67;11.67;;;;;;;;5141180;27;45246;-75
2023/08/10 00:19:22;;;;;;;;;11.33;11.33;;;;;;;;5141242;27;45256;-75
2023/08/10 00:21:48;;;;;;;;;11.00;11.00;;;;;;;;5141086;27;45284;-75
2023/08/10 00:24:13;;;;;;;;;12.00;11.67;;;;;;;;5140966;27;46352;-75
2023/08/10 00:26:38;;;;;;;;;15.67;14.00;;;;;;;;5122092;27;45380;-76
2023/08/10 00:29:03;;;;;;;;;12.67;12.67;;;;;;;;5134512;27;45590;-76
2023/08/10 00:31:28;;;;;;;;;14.00;13.33;;;;;;;;5120237;27;45216;-76
2023/08/10 00:33:54;;;;;;;;;13.33;13.33;;;;;;;;5122050;27;46016;-76
2023/08/10 00:36:19;;;;;;;;;15.33;15.33;;;;;;;;5105051;27;45363;-76
2023/08/10 00:38:44;;;;;;;;;15.00;15.00;;;;;;;;5123713;27;45506;-75
2023/08/10 00:41:09;;;;;;;;;11.00;10.67;;;;;;;;5104851;27;47094;-75
2023/08/10 00:43:35;;;;;;;;;12.67;11.00;;;;;;;;5105063;27;48160;-75
2023/08/10 00:46:00;;;;;;;;;15.00;14.00;;;;;;;;5123564;27;45329;-75
2023/08/10 00:48:26;;;;;;;;;16.67;15.67;;;;;;;;5123748;27;45268;-76
2023/08/10 00:50:52;;;;;;;;;15.00;14.00;;;;;;;;5123270;27;45165;-76
2023/08/10 00:53:18;;;;;;;;;14.00;13.33;;;;;;;;5123151;27;45489;-75
2023/08/10 00:55:43;;;;;;;;;16.33;16.00;;;;;;;;5123537;27;45379;-75
2023/08/10 00:58:11;;;;;;;;;14.00;13.67;;;;;;;;5123557;27;45294;-75
2023/08/10 01:00:36;;;;;;;;;14.00;14.00;;;;;;;;5123376;27;45238;-75
2023/08/10 01:03:01;;;;;;;;;14.67;14.33;;;;;;;;5104260;27;47667;-75
2023/08/10 01:05:29;;;;;;;;;16.33;13.33;;;;;;;;5104659;27;45327;-75
2023/08/10 01:08:03;;;;;;;;;13.67;12.67;;;;;;;;5123336;27;45350;-76
2023/08/10 01:10:51;;;;;;;;;12.33;12.33;;;;;;;;5123194;27;45333;-75
2023/08/10 01:13:16;;;;;;;;;16.00;15.00;;;;;;;;5122531;27;47009;-75
2023/08/10 01:15:49;;;;;;;;;14.33;14.33;;;;;;;;5123163;27;45141;-75
2023/08/10 01:18:16;;;;;;;;;16.00;16.00;;;;;;;;5104623;27;45319;-76
2023/08/10 01:20:43;;;;;;;;;14.67;14.67;;;;;;;;5104186;27;46143;-76
2023/08/10 01:23:17;;;;;;;;;15.67;15.67;;;;;;;;5122804;27;46625;-75
2023/08/10 01:25:42;;;;;;;;;14.33;14.33;;;;;;;;5123160;27;45304;-75
2023/08/10 01:28:08;;;;;;;;;11.00;11.00;;;;;;;;5123039;27;45365;-76
2023/08/10 01:30:34;;;;;;;;;14.33;13.67;;;;;;;;5104022;27;46534;-75
2023/08/10 01:32:59;;;;;;;;;14.00;13.00;;;;;;;;5122857;27;45312;-75
2023/08/10 01:35:24;;;;;;;;;9.67;9.67;;;;;;;;5104221;27;45397;-76
2023/08/10 01:37:50;;;;;;;;;15.00;14.00;;;;;;;;5122846;27;45310;-76
2023/08/10 01:40:16;;;;;;;;;12.67;12.33;;;;;;;;5122693;27;45477;-76
2023/08/10 01:42:41;;;;;;;;;10.00;10.00;;;;;;;;5122579;27;45643;-75
2023/08/10 01:45:07;;;;;;;;;11.00;10.00;;;;;;;;5122529;27;45236;-76
2023/08/10 01:47:42;;;;;;;;;9.33;9.33;;;;;;;;5104298;27;45348;-75
2023/08/10 01:50:08;;;;;;;;;10.33;10.00;;;;;;;;5122690;27;45388;-75
2023/08/10 01:52:36;;;;;;;;;12.00;11.33;;;;;;;;5103351;27;47860;-75
2023/08/10 01:55:02;;;;;;;;;9.33;9.33;;;;;;;;5122571;27;45274;-76
2023/08/10 01:57:29;;;;;;;;;12.00;12.00;;;;;;;;5122427;27;45316;-75
2023/08/10 01:59:54;;;;;;;;;12.00;11.33;;;;;;;;5102838;27;46254;-76
2023/08/10 02:02:20;;;;;;;;;12.67;12.67;;;;;;;;5122045;27;46293;-75
2023/08/10 02:04:45;;;;;;;;;12.00;12.00;;;;;;;;5122431;27;45228;-75
2023/08/10 02:07:10;;;;;;;;;9.67;9.67;;;;;;;;5122248;27;45412;-75
2023/08/10 02:09:36;;;;;;;;;12.00;11.33;;;;;;;;5122217;27;45291;-75
2023/08/10 02:12:01;;;;;;;;;11.00;11.00;;;;;;;;5122096;27;46224;-75
2023/08/10 02:14:26;;;;;;;;;9.67;9.33;;;;;;;;5122428;27;45442;-75
2023/08/10 02:16:52;;;;;;;;;12.00;12.00;;;;;;;;5122349;27;45598;-75
2023/08/10 02:19:17;;;;;;;;;10.33;10.33;;;;;;;;5103496;27;45492;-75
2023/08/10 02:21:42;;;;;;;;;13.33;10.67;;;;;;;;5121973;27;45357;-75
2023/08/10 02:24:07;;;;;;;;;13.67;13.00;;;;;;;;5121956;27;45141;-76
2023/08/10 02:26:33;;;;;;;;;13.33;13.33;;;;;;;;5122181;27;45331;-76
2023/08/10 02:28:58;;;;;;;;;9.00;7.67;;;;;;;;5127628;27;45305;-75
2023/08/10 02:31:23;;;;;;;;;10.00;10.00;;;;;;;;5142595;27;46353;-75
2023/08/10 02:33:48;;;;;;;;;9.00;9.00;;;;;;;;5142869;27;45317;-75
2023/08/10 02:36:13;;;;;;;;;9.00;9.00;;;;;;;;5142787;27;45317;-75
2023/08/10 02:38:39;;;;;;;;;10.67;10.67;;;;;;;;5142448;27;45280;-75
2023/08/10 02:41:04;;;;;;;;;11.33;10.00;;;;;;;;5142270;27;46264;-75
2023/08/10 02:43:29;;;;;;;;;10.00;10.00;;;;;;;;5142519;27;45264;-75
2023/08/10 02:45:55;;;;;;;;;9.67;9.67;;;;;;;;5142799;27;45321;-75
2023/08/10 02:48:20;;;;;;;;;11.00;10.33;;;;;;;;5142413;27;45332;-75
2023/08/10 02:50:46;;;;;;;;;10.33;10.33;;;;;;;;5142254;27;45279;-75
2023/08/10 02:53:11;;;;;;;;;12.67;12.67;;;;;;;;5142261;27;45352;-75
2023/08/10 02:55:36;;;;;;;;;12.33;12.00;;;;;;;;5141729;27;45227;-75
2023/08/10 02:58:01;;;;;;;;;12.00;12.00;;;;;;;;5142457;27;45277;-75
2023/08/10 03:00:26;;;;;;;;;9.67;9.67;;;;;;;;5123267;27;47143;-75
2023/08/10 03:02:52;;;;;;;;;12.33;10.33;;;;;;;;5142311;27;45274;-75
2023/08/10 03:05:20;;;;;;;;;10.00;9.67;;;;;;;;5142323;27;45344;-75
2023/08/10 03:07:46;;;;;;;;;8.33;8.33;;;;;;;;5141912;27;45307;-75
2023/08/10 03:10:11;;;;;;;;;14.00;12.00;;;;;;;;5142073;27;46044;-75
2023/08/10 03:12:37;;;;;;;;;9.67;9.67;;;;;;;;5123537;27;45411;-76
2023/08/10 03:15:04;;;;;;;;;9.67;9.67;;;;;;;;5142284;27;45383;-74
2023/08/10 03:17:29;;;;;;;;;10.00;10.00;;;;;;;;5141997;27;45516;-76
2023/08/10 03:19:54;;;;;;;;;9.67;9.67;;;;;;;;5123144;27;47233;-76
2023/08/10 03:22:20;;;;;;;;;9.67;9.00;;;;;;;;5141669;27;45340;-75
2023/08/10 03:24:45;;;;;;;;;9.00;9.00;;;;;;;;5142091;27;45160;-75
2023/08/10 03:27:10;;;;;;;;;10.33;10.00;;;;;;;;5141919;27;45381;-75
2023/08/10 03:29:35;;;;;;;;;9.00;9.00;;;;;;;;5130403;27;45250;-75
2023/08/10 03:32:01;;;;;;;;;9.00;9.00;;;;;;;;5121076;27;45307;-76
2023/08/10 03:34:26;;;;;;;;;10.00;9.67;;;;;;;;5121227;27;45413;-74
2023/08/10 03:36:53;;;;;;;;;10.33;10.33;;;;;;;;5120778;27;45415;-75
2023/08/10 03:39:18;;;;;;;;;10.33;10.33;;;;;;;;5120830;27;45410;-75
2023/08/10 03:41:43;;;;;;;;;11.00;10.33;;;;;;;;5120546;27;45220;-75
2023/08/10 03:44:08;;;;;;;;;10.33;10.33;;;;;;;;5120988;27;45599;-75
2023/08/10 03:46:33;;;;;;;;;11.67;9.00;;;;;;;;5120870;27;45441;-75
2023/08/10 03:48:59;;;;;;;;;11.00;11.00;;;;;;;;5102228;27;47047;-75
2023/08/10 03:51:24;;;;;;;;;11.67;11.33;;;;;;;;5101987;27;45390;-75
2023/08/10 03:53:50;;;;;;;;;10.00;10.00;;;;;;;;5120585;27;45459;-75
2023/08/10 03:56:16;;;;;;;;;12.67;11.00;;;;;;;;5120704;27;45656;-75
2023/08/10 03:58:41;;;;;;;;;8.00;8.00;;;;;;;;5120721;27;46167;-75
2023/08/10 04:01:07;;;;;;;;;11.67;11.67;;;;;;;;5120595;27;45228;-75
2023/08/10 04:03:32;;;;;;;;;10.67;10.67;;;;;;;;5120861;27;45343;-75
2023/08/10 04:05:58;;;;;;;;;9.33;9.33;;;;;;;;5101877;27;46278;-75
2023/08/10 04:08:24;;;;;;;;;11.00;11.00;;;;;;;;5121243;27;45283;-75
2023/08/10 04:10:49;;;;;;;;;11.00;11.00;;;;;;;;5124352;27;45369;-74
2023/08/10 04:13:14;;;;;;;;;10.33;10.00;;;;;;;;5105749;27;45280;-75
2023/08/10 04:15:39;;;;;;;;;9.00;9.00;;;;;;;;5124106;27;45332;-75
2023/08/10 04:18:05;;;;;;;;;11.00;10.00;;;;;;;;5124139;27;46415;-75
2023/08/10 04:20:30;;;;;;;;;9.00;9.00;;;;;;;;5123822;27;45309;-75
2023/08/10 04:22:57;;;;;;;;;13.00;13.00;;;;;;;;5085501;27;45464;-75
2023/08/10 04:25:22;;;;;;;;;10.33;10.33;;;;;;;;5103341;27;45181;-75
2023/08/10 04:27:47;;;;;;;;;11.00;11.00;;;;;;;;5103331;27;45369;-75
2023/08/10 04:30:13;;;;;;;;;9.67;9.67;;;;;;;;5136170;27;45356;-75
2023/08/10 04:32:38;;;;;;;;;8.67;8.67;;;;;;;;5126085;27;45247;-75
2023/08/10 04:35:04;;;;;;;;;10.67;10.33;;;;;;;;5144638;27;45335;-75
2023/08/10 04:37:29;;;;;;;;;10.00;9.33;;;;;;;;5144204;27;45756;-74
2023/08/10 04:39:54;;;;;;;;;11.00;11.00;;;;;;;;5125926;27;45413;-75
2023/08/10 04:42:19;;;;;;;;;11.00;11.00;;;;;;;;5144609;27;45251;-75
2023/08/10 04:44:44;;;;;;;;;10.67;10.33;;;;;;;;5144410;27;45518;-75
2023/08/10 04:47:10;;;;;;;;;10.33;10.00;;;;;;;;5144494;27;45994;-75
2023/08/10 04:49:35;;;;;;;;;11.00;11.00;;;;;;;;5144370;27;45329;-75
2023/08/10 04:52:00;;;;;;;;;10.33;10.33;;;;;;;;5125397;27;45534;-75
2023/08/10 04:54:25;;;;;;;;;11.00;9.00;;;;;;;;5144443;27;45574;-74
2023/08/10 04:56:50;;;;;;;;;10.67;9.67;;;;;;;;5144104;27;46301;-74
2023/08/10 04:59:16;;;;;;;;;11.67;11.67;;;;;;;;5125717;27;45381;-75
2023/08/10 05:01:41;;;;;;;;;12.00;12.00;;;;;;;;5144245;27;45370;-75
2023/08/10 05:04:06;;;;;;;;;11.00;10.00;;;;;;;;5144148;27;45561;-75
2023/08/10 05:06:34;;;;;;;;;10.00;10.00;;;;;;;;5144087;27;45394;-75
2023/08/10 05:08:59;;;;;;;;;8.00;8.00;;;;;;;;5144052;27;45376;-75
2023/08/10 05:11:24;;;;;;;;;10.00;9.67;;;;;;;;5144162;27;45261;-75
2023/08/10 05:13:49;;;;;;;;;11.67;11.67;;;;;;;;5144037;27;45268;-74
2023/08/10 05:16:15;;;;;;;;;11.00;11.00;;;;;;;;5125210;27;48566;-75
2023/08/10 05:18:40;;;;;;;;;11.00;10.00;;;;;;;;5143429;27;45152;-74
2023/08/10 05:21:05;;;;;;;;;11.67;10.67;;;;;;;;5143810;27;45191;-75
2023/08/10 05:23:30;;;;;;;;;14.00;11.00;;;;;;;;5124859;27;46317;-75
2023/08/10 05:25:55;;;;;;;;;10.67;10.67;;;;;;;;5125082;27;46270;-75
2023/08/10 05:28:21;;;;;;;;;9.67;9.67;;;;;;;;5143223;27;45191;-75
2023/08/10 05:30:46;;;;;;;;;11.33;11.33;;;;;;;;5123065;27;45185;-75
2023/08/10 05:33:11;;;;;;;;;10.00;10.00;;;;;;;;5123090;27;45250;-75
2023/08/10 05:35:36;;;;;;;;;9.33;9.33;;;;;;;;5122760;27;45350;-75
2023/08/10 05:38:02;;;;;;;;;9.00;9.00;;;;;;;;5122792;27;45210;-75
2023/08/10 05:40:27;;;;;;;;;9.67;9.67;;;;;;;;5104221;27;45227;-75
2023/08/10 05:42:53;;;;;;;;;10.00;9.33;;;;;;;;5122688;27;45564;-75
2023/08/10 05:45:19;;;;;;;;;9.00;9.00;;;;;;;;5122663;27;45443;-74
2023/08/10 05:47:45;;;;;;;;;9.67;9.67;;;;;;;;5122743;27;45313;-75
2023/08/10 05:50:11;;;;;;;;;9.33;8.33;;;;;;;;5122741;27;45333;-75
2023/08/10 05:52:36;;;;;;;;;12.67;9.67;;;;;;;;5121868;27;45382;-75
2023/08/10 05:55:02;;;;;;;;;10.67;10.67;;;;;;;;5103970;27;48019;-75
2023/08/10 05:57:27;;;;;;;;;8.67;8.67;;;;;;;;5122529;27;45385;-75
2023/08/10 05:59:53;;;;;;;;;10.00;10.00;;;;;;;;5122739;27;45264;-75
2023/08/10 06:02:19;;;;;;;;;11.00;11.00;;;;;;;;5122375;27;46148;-75
2023/08/10 06:04:45;;;;;;;;;10.67;10.00;;;;;;;;5122328;27;46095;-76
2023/08/10 06:07:10;;;;;;;;;9.33;9.33;;;;;;;;5122076;27;45226;-75
2023/08/10 06:09:35;;;;;;;;;9.67;7.67;;;;;;;;5103887;27;45313;-75
2023/08/10 06:12:03;;;;;;;;;10.67;10.67;;;;;;;;5121650;27;45209;-75
2023/08/10 06:14:28;;;;;;;;;12.33;11.33;;;;;;;;5103531;27;47476;-75
2023/08/10 06:16:53;;;;;;;;;9.00;9.00;;;;;;;;5122157;27;45259;-75
2023/08/10 06:19:18;;;;;;;;;9.00;8.67;;;;;;;;5122354;27;45393;-75
2023/08/10 06:21:44;;;;;;;;;9.00;9.00;;;;;;;;5121949;27;45583;-76
2023/08/10 06:24:09;;;;;;;;;9.67;8.33;;;;;;;;5103343;27;48291;-74
2023/08/10 06:26:34;;;;;;;;;9.00;7.67;;;;;;;;5121934;27;45314;-75
2023/08/10 06:29:00;;;;;;;;;11.00;11.00;;;;;;;;5109569;27;45317;-75
2023/08/10 06:31:25;;;;;;;;;12.00;10.33;;;;;;;;5123035;27;46443;-75
2023/08/10 06:33:50;;;;;;;;;10.00;8.00;;;;;;;;5124000;27;47501;-75
2023/08/10 06:36:16;;;;;;;;;11.00;10.00;;;;;;;;5124302;27;45435;-75
2023/08/10 06:38:41;;;;;;;;;10.33;8.67;;;;;;;;5131417;27;45614;-75
2023/08/10 06:41:06;;;;;;;;;11.33;10.00;;;;;;;;5121492;27;45413;-75
2023/08/10 06:43:31;;;;;;;;;7.67;6.33;;;;;;;;5121838;27;45360;-76
2023/08/10 06:45:56;;;;;;;;;8.00;7.67;;;;;;;;5111817;27;45627;-74
2023/08/10 06:48:21;;;;;;;;;9.00;9.00;;;;;;;;5091503;27;45389;-75
2023/08/10 06:50:47;;;;;;;;;10.33;8.00;;;;;;;;5100916;27;45232;-76
2023/08/10 06:53:12;;;;;;;;;10.33;7.00;;;;;;;;5119231;27;45421;-76
2023/08/10 06:55:38;;;;;;;;;7.00;7.00;;;;;;;;5121797;27;45311;-76
2023/08/10 06:58:03;;;;;;;;;7.00;7.00;;;;;;;;5122024;27;45285;-75
2023/08/10 07:00:29;;;;;;;;;7.67;7.67;;;;;;;;5121661;27;45437;-75
2023/08/10 07:02:54;;;;;;;;;6.33;6.33;;;;;;;;5121839;27;45469;-76
2023/08/10 07:05:21;;;;;;;;;6.00;6.00;;;;;;;;5104056;27;45244;-75
2023/08/10 07:07:46;;;;;;;;;7.67;7.67;;;;;;;;5109548;27;45285;-77
2023/08/10 07:10:12;;;;;;;;;9.00;8.67;;;;;;;;5130749;27;45215;-78
2023/08/10 07:12:37;;;;;;;;;8.67;8.67;;;;;;;;5129360;27;46415;-76
2023/08/10 07:15:02;;;;;;;;;9.00;8.00;;;;;;;;5111954;27;45297;-76
2023/08/10 07:17:28;;;;;;;;;7.00;7.00;;;;;;;;5121746;27;45426;-78
2023/08/10 07:19:54;;;;;;;;;6.67;6.67;;;;;;;;5102549;27;45426;-79
2023/08/10 07:22:19;;;;;;;;;5.67;5.67;;;;;;;;5104150;27;45393;-78
2023/08/10 07:24:44;;;;;;;;;8.00;8.00;;;;;;;;5102098;27;45318;-79
2023/08/10 07:27:10;;;;;;;;;8.00;6.67;;;;;;;;5083537;27;45555;-79
2023/08/10 07:29:35;;;;;;;;;9.67;7.67;;;;;;;;5124718;27;45477;-79
2023/08/10 07:32:00;;;;;;;;;7.33;7.33;;;;;;;;5124569;27;47233;-77
2023/08/10 07:34:26;;;;;;;;;7.67;7.67;;;;;;;;5141891;27;45398;-77
2023/08/10 07:36:52;;;;;;;;;8.67;8.00;;;;;;;;5119667;27;45530;-77
2023/08/10 07:39:17;;;;;;;;;7.00;7.00;;;;;;;;5109072;27;45464;-77
2023/08/10 07:41:42;;;;;;;;;6.67;6.67;;;;;;;;5108343;27;46130;-77
2023/08/10 07:44:08;;;;;;;;;8.33;7.00;;;;;;;;5106393;27;45312;-79
2023/08/10 07:46:33;;;;;;;;;7.00;7.00;;;;;;;;5103436;27;45299;-76
2023/08/10 07:48:58;;;;;;;;;7.00;7.00;;;;;;;;5082215;27;45787;-76
2023/08/10 07:51:23;;;;;;;;;6.00;5.00;;;;;;;;5100021;27;45241;-76
2023/08/10 07:53:49;;;;;;;;;6.33;6.33;;;;;;;;5081945;27;45318;-76
2023/08/10 07:56:14;;;;;;;;;5.33;5.33;;;;;;;;5100465;27;45265;-75
2023/08/10 07:58:40;;;;;;;;;7.67;5.67;;;;;;;;5100972;27;45180;-75
2023/08/10 08:01:08;;;;;;;;;6.00;6.00;;;;;;;;5101378;27;46341;-76
2023/08/10 08:03:34;;;;;;;;;6.00;6.00;;;;;;;;5100889;27;45333;-76
2023/08/10 08:05:59;;;;;;;;;7.00;7.00;;;;;;;;5081595;27;45454;-75
2023/08/10 08:08:24;;;;;;;;;8.00;7.00;;;;;;;;5099692;27;45220;-76
2023/08/10 08:10:50;;;;;;;;;6.00;6.00;;;;;;;;5100041;27;45286;-75
2023/08/10 08:13:15;;;;;;;;;8.00;6.67;;;;;;;;5100015;27;45473;-75
2023/08/10 08:15:40;;;;;;;;;6.00;6.00;;;;;;;;5101492;27;45405;-75
2023/08/10 08:18:24;;;;;;;;;7.00;7.00;;;;;;;;5109266;27;45373;-76
2023/08/10 08:20:49;;;;;;;;;12.00;12.00;;;;;;;;5104969;27;46398;-75
2023/08/10 08:23:14;;;;;;;;;8.00;7.00;;;;;;;;5099757;27;45306;-75
2023/08/10 08:25:39;;;;;;;;;5.33;5.33;;;;;;;;5100588;27;45532;-75
2023/08/10 08:28:05;;;;;;;;;6.00;6.00;;;;;;;;5081392;27;45527;-75
2023/08/10 08:30:30;;;;;;;;;8.00;7.00;;;;;;;;5137549;27;46716;-76
2023/08/10 08:32:55;;;;;;;;;6.67;6.67;;;;;;;;5140108;27;45401;-76
2023/08/10 08:35:20;;;;;;;;;5.00;5.00;;;;;;;;5140111;27;45500;-75
2023/08/10 08:37:45;;;;;;;;;6.00;6.00;;;;;;;;5140756;27;45421;-75
2023/08/10 08:40:11;;;;;;;;;5.67;5.67;;;;;;;;5121843;27;47062;-76
2023/08/10 08:42:36;;;;;;;;;7.33;7.33;;;;;;;;5140481;27;45291;-75
2023/08/10 08:45:02;;;;;;;;;8.67;6.00;;;;;;;;5138543;27;45483;-76
2023/08/10 08:47:27;;;;;;;;;5.00;5.00;;;;;;;;5120300;27;46365;-76
2023/08/10 08:49:52;;;;;;;;;5.00;5.00;;;;;;;;5101513;27;47280;-76
2023/08/10 08:52:18;;;;;;;;;5.00;5.00;;;;;;;;5119979;27;45261;-76
2023/08/10 08:54:44;;;;;;;;;6.67;6.67;;;;;;;;5106429;27;45246;-75
2023/08/10 08:57:09;;;;;;;;;8.67;7.00;;;;;;;;5124482;27;45346;-76
2023/08/10 08:59:34;;;;;;;;;5.00;4.67;;;;;;;;5123523;27;45316;-76
2023/08/10 09:02:01;;;;;;;;;6.33;6.33;;;;;;;;5123928;27;45329;-76
2023/08/10 09:04:26;;;;;;;;;6.67;6.67;;;;;;;;5124267;27;45209;-77
2023/08/10 09:06:51;;;;;;;;;5.33;5.33;;;;;;;;5122784;27;45526;-75
2023/08/10 09:09:17;;;;;;;;;6.67;5.33;;;;;;;;5104836;27;47271;-76
2023/08/10 09:11:42;;;;;;;;;4.00;4.00;;;;;;;;5123249;27;45362;-76
2023/08/10 09:14:08;;;;;;;;;5.00;5.00;;;;;;;;5106116;27;45262;-78
2023/08/10 09:16:34;;;;;;;;;7.00;7.00;;;;;;;;5121810;27;45541;-77
2023/08/10 09:19:00;;;;;;;;;7.00;7.00;;;;;;;;5110082;27;45986;-78
2023/08/10 09:21:29;;;;;;;;;8.00;8.00;;;;;;;;5104373;27;45772;-78
2023/08/10 09:23:55;;;;;;;;;6.67;6.67;;;;;;;;5100262;27;45439;-79
2023/08/10 09:26:21;;;;;;;;;7.67;7.67;;;;;;;;5111258;27;45160;-79
2023/08/10 09:28:47;;;;;;;;;4.00;3.67;;;;;;;;5113559;27;45505;-78
2023/08/10 09:31:13;;;;;;;;;5.00;5.00;;;;;;;;5092586;27;45364;-77
2023/08/10 09:33:38;;;;;;;;;5.33;5.33;;;;;;;;5111646;27;45529;-77
2023/08/10 09:36:04;;;;;;;;;6.33;5.67;;;;;;;;5096260;27;45786;-78
2023/08/10 09:38:30;;;;;;;;;4.00;4.00;;;;;;;;5116224;27;45725;-78
2023/08/10 09:41:10;;;;;;;;;7.00;5.33;;;;;;;;5121979;27;45478;-79
2023/08/10 09:43:36;;;;;;;;;6.00;6.00;;;;;;;;5100345;27;45520;-78
2023/08/10 09:46:04;;;;;;;;;5.00;5.00;;;;;;;;5114315;27;45465;-77
2023/08/10 09:48:33;;;;;;;;;6.33;5.33;;;;;;;;5112253;27;45496;-77
2023/08/10 09:50:58;;;;;;;;;5.67;5.67;;;;;;;;5120502;27;45536;-78
2023/08/10 09:53:24;;;;;;;;;6.33;6.33;;;;;;;;5128474;27;45408;-77
2023/08/10 09:55:49;;;;;;;;;8.00;7.00;;;;;;;;5142818;27;45496;-77
2023/08/10 09:58:14;;;;;;;;;5.00;5.00;;;;;;;;5114191;27;47532;-78
2023/08/10 10:00:40;;;;;;;;;4.33;4.33;;;;;;;;5094390;27;45988;-78
2023/08/10 10:03:05;;;;;;;;;4.67;4.00;;;;;;;;5107853;27;45447;-79
2023/08/10 10:05:30;;;;;;;;;6.33;6.33;;;;;;;;5128072;27;45259;-76
2023/08/10 10:07:56;;;;;;;;;5.75;5.75;;;;;;;;5112628;27;47247;-78
2023/08/10 10:10:21;;;;;;;;;6.00;6.00;;;;;;;;5143032;27;45463;-77
2023/08/10 10:12:48;;;;;;;;;5.00;5.00;;;;;;;;5142116;27;45376;-77
2023/08/10 10:15:14;;;;;;;;;5.00;5.00;;;;;;;;5123173;27;46046;-78
2023/08/10 10:17:41;;;;;;;;;6.00;6.00;;;;;;;;5118210;27;45307;-77
2023/08/10 10:20:11;;;;;;;;;5.00;5.00;;;;;;;;5126737;27;45544;-78
2023/08/10 10:22:37;;;;;;;;;2.00;2.00;;;;;;;;5122879;27;45350;-79
2023/08/10 10:25:03;;;;;;;;;5.00;5.00;;;;;;;;5106059;27;46027;-78
2023/08/10 10:27:37;;;;;;;;;6.67;5.67;;;;;;;;5105512;27;48061;-79
2023/08/10 10:30:11;;;;;;;;;5.75;4.00;;;;;;;;5134780;27;45417;-77
2023/08/10 10:32:42;;;;;;;;;5.50;4.50;;;;;;;;5121060;27;45394;-78
2023/08/10 10:35:07;;;;;;;;;4.67;4.67;;;;;;;;5103583;27;46386;-78
2023/08/10 10:37:34;;;;;;;;;5.00;4.50;;;;;;;;5103359;27;47227;-77
2023/08/10 10:40:13;;;;;;;;;5.00;5.00;;;;;;;;5122738;27;45233;-77
2023/08/10 10:42:58;;;;;;;;;5.00;5.00;;;;;;;;5128338;27;45389;-79
2023/08/10 10:45:23;;;;;;;;;4.67;4.67;;;;;;;;5121539;27;45264;-77
2023/08/10 10:47:49;;;;;;;;;5.00;5.00;;;;;;;;5103364;27;47215;-79
2023/08/10 10:50:16;;;;;;;;;3.25;3.25;;;;;;;;5105031;27;45977;-78
2023/08/10 10:52:48;;;;;;;;;4.00;4.00;;;;;;;;5124557;27;45394;-77
2023/08/10 10:55:13;;;;;;;;;4.33;4.33;;;;;;;;5105746;27;45334;-75
2023/08/10 10:57:39;;;;;;;;;4.00;4.00;;;;;;;;5093280;27;47105;-77
2023/08/10 11:00:05;;;;;;;;;7.00;7.00;;;;;;;;5112530;27;45345;-77
2023/08/10 11:02:30;;;;;;;;;5.25;5.25;;;;;;;;5108633;27;45407;-77
2023/08/10 11:04:55;;;;;;;;;4.75;4.75;;;;;;;;5109126;27;45412;-78
2023/08/10 11:07:20;;;;;;;;;5.00;5.00;;;;;;;;5105653;27;45493;-77
2023/08/10 11:09:46;;;;;;;;;3.25;3.25;;;;;;;;5107552;27;45330;-77
2023/08/10 11:12:11;;;;;;;;;4.00;4.00;;;;;;;;5100916;27;45421;-77
2023/08/10 11:14:38;;;;;;;;;4.00;4.00;;;;;;;;5103504;27;45592;-77
2023/08/10 11:17:04;;;;;;;;;4.00;4.00;;;;;;;;5083782;27;47060;-77
2023/08/10 11:19:30;;;;;;;;;6.33;5.00;;;;;;;;5118319;27;45369;-77
2023/08/10 11:21:56;;;;;;;;;4.67;4.00;;;;;;;;5123845;27;45161;-77
2023/08/10 11:24:21;;;;;;;;;1.25;1.00;;;;;;;;5116976;27;45393;-76
2023/08/10 11:26:48;;;;;;;;;3.00;3.00;;;;;;;;5103516;27;45490;-76
2023/08/10 11:29:13;;;;;;;;;4.00;4.00;;;;;;;;5099441;27;45419;-76
2023/08/10 11:31:39;;;;;;;;;5.67;5.00;;;;;;;;5143626;27;45532;-76
2023/08/10 11:34:20;;;;;;;;;4.67;4.67;;;;;;;;5142430;27;45482;-76
2023/08/10 11:36:46;;;;;;;;;5.75;5.75;;;;;;;;5141387;27;45495;-75
2023/08/10 11:39:11;;;;;;;;;4.25;4.25;;;;;;;;5105948;27;45157;-76
2023/08/10 11:41:40;;;;;;;;;5.25;5.00;;;;;;;;5083373;27;45448;-75
2023/08/10 11:44:06;;;;;;;;;5.00;5.00;;;;;;;;5087073;27;47369;-75
2023/08/10 11:46:31;;;;;;;;;5.00;4.67;;;;;;;;5086425;27;47447;-75
2023/08/10 11:48:58;;;;;;;;;4.33;4.33;;;;;;;;5105800;27;45402;-75
2023/08/10 11:51:30;;;;;;;;;5.33;5.33;;;;;;;;5108134;27;45323;-76
2023/08/10 11:53:55;;;;;;;;;4.50;4.50;;;;;;;;5102220;27;47166;-75
2023/08/10 11:56:21;;;;;;;;;2.50;2.50;;;;;;;;5121150;27;47025;-75
2023/08/10 11:58:46;;;;;;;;;4.75;4.75;;;;;;;;5120540;27;45599;-75
2023/08/10 12:01:15;;;;;;;;;3.25;3.25;;;;;;;;5120245;27;45329;-75
2023/08/10 12:03:47;;;;;;;;;4.00;4.00;;;;;;;;5121079;27;45168;-75
2023/08/10 12:06:15;;;;;;;;;3.67;3.67;;;;;;;;5121135;27;45648;-75
2023/08/10 12:08:40;;;;;;;;;4.50;4.50;;;;;;;;5120517;27;45508;-75
2023/08/10 12:11:06;;;;;;;;;5.75;5.75;;;;;;;;5102866;27;45248;-75
2023/08/10 12:13:32;;;;;;;;;4.25;4.25;;;;;;;;5119027;27;45231;-75
2023/08/10 12:15:58;;;;;;;;;5.00;5.00;;;;;;;;5110497;27;45370;-75
2023/08/10 12:18:24;;;;;;;;;5.50;4.75;;;;;;;;5110041;27;45407;-75
2023/08/10 12:20:51;;;;;;;;;4.50;4.50;;;;;;;;5111974;27;45779;-76
2023/08/10 12:23:17;;;;;;;;;6.00;5.00;;;;;;;;5099743;27;46247;-76
2023/08/10 12:25:45;;;;;;;;;3.25;3.25;;;;;;;;5120269;27;45428;-75
2023/08/10 12:28:11;;;;;;;;;3.75;3.75;;;;;;;;5140907;27;45365;-75
2023/08/10 12:30:37;;;;;;;;;4.50;4.50;;;;;;;;5123754;27;45436;-75
2023/08/10 12:33:03;;;;;;;;;5.00;5.00;;;;;;;;5104608;27;47240;-75
2023/08/10 12:35:29;;;;;;;;;4.50;4.50;;;;;;;;5122763;27;45407;-76
2023/08/10 12:37:54;;;;;;;;;3.00;3.00;;;;;;;;5123199;27;45302;-74
2023/08/10 12:40:19;;;;;;;;;4.00;4.00;;;;;;;;5105141;27;45362;-76
2023/08/10 12:42:45;;;;;;;;;4.25;3.25;;;;;;;;5123421;27;45499;-74
2023/08/10 12:45:11;;;;;;;;;3.75;3.75;;;;;;;;5123699;27;46035;-75
2023/08/10 12:47:39;;;;;;;;;4.25;4.25;;;;;;;;5124030;27;45408;-76
2023/08/10 12:50:09;;;;;;;;;4.50;4.50;;;;;;;;5123983;27;45315;-75
2023/08/10 12:52:35;;;;;;;;;4.00;4.00;;;;;;;;5122968;27;45446;-76
2023/08/10 12:55:01;;;;;;;;;4.50;4.50;;;;;;;;5123542;27;46046;-75
2023/08/10 12:57:26;;;;;;;;;4.75;4.50;;;;;;;;5123596;27;45372;-75
2023/08/10 12:59:51;;;;;;;;;6.67;6.67;;;;;;;;5123768;27;45391;-76
2023/08/10 13:02:17;;;;;;;;;4.25;4.25;;;;;;;;5123260;27;45534;-75
2023/08/10 13:04:42;;;;;;;;;5.00;5.00;;;;;;;;5104798;27;47175;-76
2023/08/10 13:07:08;;;;;;;;;4.00;4.00;;;;;;;;5123195;27;45399;-75
2023/08/10 13:09:33;;;;;;;;;5.00;5.00;;;;;;;;5123813;27;45392;-75
2023/08/10 13:11:58;;;;;;;;;5.00;5.00;;;;;;;;5125520;27;45747;-77
2023/08/10 13:14:24;;;;;;;;;3.00;3.00;;;;;;;;5115530;27;46135;-77
2023/08/10 13:16:49;;;;;;;;;7.00;7.00;;;;;;;;5113765;27;45276;-76
2023/08/10 13:19:17;;;;;;;;;6.00;6.00;;;;;;;;5111426;27;45847;-78
2023/08/10 13:21:42;;;;;;;;;4.00;4.00;;;;;;;;5112057;27;45581;-77
2023/08/10 13:24:08;;;;;;;;;5.33;5.33;;;;;;;;5089611;27;47078;-78
2023/08/10 13:26:33;;;;;;;;;3.00;3.00;;;;;;;;5092112;27;45781;-77
2023/08/10 13:28:58;;;;;;;;;5.00;5.00;;;;;;;;5109623;27;45389;-77
2023/08/10 13:31:23;;;;;;;;;5.00;5.00;;;;;;;;5086925;27;46590;-75
2023/08/10 13:33:48;;;;;;;;;5.25;4.75;;;;;;;;5120305;27;45485;-78
2023/08/10 13:36:14;;;;;;;;;5.00;5.00;;;;;;;;5122119;27;45331;-77
2023/08/10 13:38:39;;;;;;;;;4.00;4.00;;;;;;;;5111881;27;45362;-77
2023/08/10 13:41:04;;;;;;;;;4.00;4.00;;;;;;;;5121362;27;45395;-78
2023/08/10 13:43:29;;;;;;;;;5.00;5.00;;;;;;;;5124501;27;45533;-78
2023/08/10 13:45:54;;;;;;;;;4.00;4.00;;;;;;;;5124310;27;45516;-78
2023/08/10 13:48:21;;;;;;;;;4.75;4.75;;;;;;;;5124018;27;45235;-76
2023/08/10 13:50:49;;;;;;;;;4.50;4.50;;;;;;;;5126152;27;45290;-77
2023/08/10 13:53:14;;;;;;;;;5.00;5.00;;;;;;;;5105969;27;47198;-76
2023/08/10 13:55:39;;;;;;;;;3.00;3.00;;;;;;;;5125648;27;45170;-77
2023/08/10 13:58:05;;;;;;;;;4.25;4.25;;;;;;;;5125212;27;45335;-76
2023/08/10 14:00:30;;;;;;;;;5.50;4.00;;;;;;;;5124422;27;45298;-80
2023/08/10 14:02:55;;;;;;;;;4.00;4.00;;;;;;;;5108421;27;45369;-78
2023/08/10 14:05:21;;;;;;;;;5.00;5.00;;;;;;;;5116678;27;45295;-78
2023/08/10 14:07:46;;;;;;;;;5.00;5.00;;;;;;;;5118424;27;45504;-77
2023/08/10 14:10:12;;;;;;;;;4.00;4.00;;;;;;;;5098574;27;46157;-77
2023/08/10 14:12:37;;;;;;;;;5.25;5.25;;;;;;;;5095530;27;47238;-78
2023/08/10 14:15:02;;;;;;;;;4.67;4.67;;;;;;;;5094615;27;45763;-78
2023/08/10 14:17:27;;;;;;;;;6.33;5.00;;;;;;;;5094357;27;45491;-77
2023/08/10 14:19:53;;;;;;;;;4.50;4.50;;;;;;;;5115220;27;45195;-78
2023/08/10 14:22:18;;;;;;;;;4.50;4.50;;;;;;;;5115227;27;46031;-79
2023/08/10 14:24:43;;;;;;;;;3.75;3.75;;;;;;;;5115468;27;45660;-79
2023/08/10 14:27:09;;;;;;;;;4.00;4.00;;;;;;;;5114646;27;45584;-79